createdAt,value
2022-11-29T00:01:12.533Z,24.05
2022-11-29T00:03:18.569Z,23.38
2022-11-29T00:05:23.599Z,22.38
2022-11-29T00:07:28.634Z,24.45
2022-11-29T00:09:33.591Z,24.08
2022-11-29T00:11:54.864Z,24.73
2022-11-29T00:14:00.080Z,23.13
2022-11-29T00:16:07.300Z,23.80
2022-11-29T00:18:12.350Z,23.48
2022-11-29T00:20:17.659Z,23.13
2022-11-29T00:22:24.094Z,20.95
2022-11-29T00:24:31.565Z,22.77
2022-11-29T00:26:37.612Z,22.05
2022-11-29T00:28:45.469Z,22.42
2022-11-29T00:30:50.584Z,23.40
2022-11-29T00:32:55.602Z,22.48
2022-11-29T00:35:05.248Z,23.25
2022-11-29T00:37:13.251Z,23.17
2022-11-29T00:39:18.455Z,22.52
2022-11-29T00:41:23.823Z,23.40
2022-11-29T00:43:28.860Z,24.77
2022-11-29T00:45:36.767Z,24.05
2022-11-29T00:47:41.784Z,23.10
2022-11-29T00:49:46.841Z,22.77
2022-11-29T00:51:51.981Z,25.65
2022-11-29T00:53:56.985Z,24.42
2022-11-29T00:56:02.541Z,23.15
2022-11-29T00:58:07.618Z,23.73
2022-11-29T01:00:15.035Z,24.60
2022-11-29T01:02:23.239Z,23.40
2022-11-29T01:04:28.236Z,21.88
2022-11-29T01:06:33.731Z,21.85
2022-11-29T01:08:40.046Z,23.27
2022-11-29T01:10:45.736Z,23.15
2022-11-29T01:12:51.130Z,22.90
2022-11-29T01:14:56.520Z,23.92
2022-11-29T01:17:01.879Z,23.63
2022-11-29T01:19:09.957Z,23.20
2022-11-29T01:21:18.363Z,22.25
2022-11-29T01:23:23.388Z,22.02
2022-11-29T01:25:29.429Z,22.65
2022-11-29T01:27:35.729Z,21.45
2022-11-29T01:29:41.565Z,21.73
2022-11-29T01:31:46.597Z,22.17
2022-11-29T01:33:51.946Z,22.10
2022-11-29T01:35:59.858Z,20.75
2022-11-29T01:38:04.832Z,20.85
2022-11-29T01:40:12.202Z,22.27
2022-11-29T01:42:17.485Z,20.40
2022-11-29T01:45:13.261Z,19.65
2022-11-29T01:47:20.414Z,21.33
2022-11-29T01:49:31.714Z,20.70
2022-11-29T01:51:43.305Z,23.08
2022-11-29T01:53:48.504Z,23.10
2022-11-29T01:55:59.332Z,19.10
2022-11-29T01:58:04.443Z,21.23
2022-11-29T02:00:15.462Z,21.67
2022-11-29T02:02:30.149Z,19.45
2022-11-29T02:04:36.954Z,21.35
2022-11-29T02:06:45.915Z,20.88
2022-11-29T02:08:50.919Z,20.90
2022-11-29T02:11:25.310Z,21.30
2022-11-29T02:13:41.325Z,19.15
2022-11-29T02:15:56.230Z,19.17
2022-11-29T02:18:09.467Z,20.13
2022-11-29T02:21:06.473Z,18.08
2022-11-29T02:23:53.960Z,18.15
2022-11-29T02:26:15.593Z,19.13
2022-11-29T02:28:51.909Z,19.67
2022-11-29T02:31:12.231Z,19.25
2022-11-29T02:34:02.508Z,16.50
2022-11-29T02:36:50.136Z,18.50
2022-11-29T02:39:27.601Z,17.42
2022-11-29T02:41:52.072Z,18.70
2022-11-29T02:44:47.692Z,16.10
2022-11-29T02:47:09.545Z,15.48
2022-11-29T02:49:33.190Z,17.67
2022-11-29T02:53:59.740Z,16.00
2022-11-29T02:56:18.161Z,16.58
2022-11-29T02:58:30.652Z,16.27
2022-11-29T03:00:40.157Z,16.23
2022-11-29T03:02:56.488Z,17.85
2022-11-29T03:05:15.364Z,16.98
2022-11-29T03:07:34.712Z,15.98
2022-11-29T03:09:45.222Z,16.13
2022-11-29T03:11:58.773Z,15.38
2022-11-29T03:14:17.736Z,14.82
2022-11-29T03:16:42.764Z,16.80
2022-11-29T03:19:02.768Z,16.95
2022-11-29T03:21:27.388Z,15.15
2022-11-29T03:23:39.833Z,15.55
2022-11-29T03:25:50.165Z,16.48
2022-11-29T03:28:09.110Z,15.70
2022-11-29T03:30:19.687Z,16.08
2022-11-29T03:32:33.369Z,16.13
2022-11-29T03:34:58.742Z,16.25
2022-11-29T03:37:37.791Z,16.30
2022-11-29T03:39:53.933Z,15.30
2022-11-29T03:42:05.300Z,16.52
2022-11-29T03:44:17.559Z,15.50
2022-11-29T03:46:32.004Z,16.25
2022-11-29T03:48:45.505Z,15.48
2022-11-29T03:50:56.544Z,15.07
2022-11-29T03:53:16.487Z,14.50
2022-11-29T03:55:36.575Z,14.60
2022-11-29T03:57:55.987Z,16.00
2022-11-29T04:00:08.684Z,14.02
2022-11-29T04:03:12.378Z,14.82
2022-11-29T04:05:55.743Z,14.70
2022-11-29T04:08:43.452Z,14.75
2022-11-29T04:11:54.742Z,14.63
2022-11-29T04:14:30.692Z,13.77
2022-11-29T04:17:29.694Z,14.20
2022-11-29T04:20:11.431Z,14.43
2022-11-29T04:23:03.188Z,15.48
2022-11-29T04:25:52.052Z,14.40
2022-11-29T04:28:16.890Z,16.20
2022-11-29T04:30:24.173Z,15.15
2022-11-29T04:33:19.741Z,16.50
2022-11-29T04:35:41.094Z,17.05
2022-11-29T04:38:34.365Z,16.50
2022-11-29T04:41:04.750Z,16.92
2022-11-29T04:43:51.313Z,17.20
2022-11-29T04:46:27.209Z,16.95
2022-11-29T04:48:58.855Z,17.55
2022-11-29T04:51:18.558Z,16.58
2022-11-29T04:53:48.296Z,16.95
2022-11-29T04:56:07.818Z,16.63
2022-11-29T04:58:25.348Z,16.48
2022-11-29T05:00:37.736Z,16.50
2022-11-29T05:02:51.713Z,18.37
2022-11-29T05:05:08.073Z,15.95
2022-11-29T05:07:24.723Z,18.48
2022-11-29T05:09:50.041Z,15.88
2022-11-29T05:12:07.681Z,16.98
2022-11-29T05:14:26.848Z,17.15
2022-11-29T05:16:51.147Z,18.05
2022-11-29T05:19:18.065Z,17.20
2022-11-29T05:21:33.392Z,19.23
2022-11-29T05:23:57.875Z,17.48
2022-11-29T05:26:08.781Z,14.90
2022-11-29T05:28:23.695Z,16.67
2022-11-29T05:30:45.119Z,17.35
2022-11-29T05:33:01.018Z,15.43
2022-11-29T05:35:53.258Z,16.63
2022-11-29T05:38:05.347Z,15.23
2022-11-29T05:40:45.358Z,17.80
2022-11-29T05:43:12.675Z,17.38
2022-11-29T05:45:28.541Z,17.20
2022-11-29T05:47:40.245Z,17.30
2022-11-29T05:49:58.199Z,18.40
2022-11-29T05:52:24.533Z,16.77
2022-11-29T05:54:35.956Z,17.10
2022-11-29T05:56:55.478Z,18.25
2022-11-29T05:59:05.152Z,17.50
2022-11-29T06:01:24.783Z,17.33
2022-11-29T06:03:39.237Z,18.73
2022-11-29T06:05:53.066Z,17.27
2022-11-29T06:08:08.063Z,18.25
2022-11-29T06:10:18.396Z,18.42
2022-11-29T06:12:26.998Z,18.58
2022-11-29T06:14:55.531Z,18.40
2022-11-29T06:17:27.194Z,17.73
2022-11-29T06:19:57.857Z,19.45
2022-11-29T06:22:21.008Z,19.45
2022-11-29T06:25:06.113Z,19.42
2022-11-29T06:27:36.689Z,18.95
2022-11-29T06:29:52.046Z,18.00
2022-11-29T06:32:05.946Z,17.75
2022-11-29T06:34:25.088Z,19.08
2022-11-29T06:38:43.447Z,18.65
2022-11-29T06:40:49.825Z,18.23
2022-11-29T06:42:55.651Z,19.60
2022-11-29T06:45:01.608Z,20.85
2022-11-29T06:47:10.150Z,19.05
2022-11-29T06:49:27.932Z,19.40
2022-11-29T06:51:45.504Z,20.60
2022-11-29T06:53:59.055Z,21.00
2022-11-29T06:58:40.689Z,18.67
2022-11-29T07:00:55.295Z,20.85
2022-11-29T07:03:23.755Z,20.23
2022-11-29T07:05:34.788Z,20.77
2022-11-29T07:07:41.350Z,20.33
2022-11-29T07:09:49.696Z,20.17
2022-11-29T07:11:55.872Z,22.45
2022-11-29T07:14:01.785Z,22.02
2022-11-29T07:16:29.429Z,21.58
2022-11-29T07:18:44.670Z,22.38
2022-11-29T07:21:06.674Z,20.70
2022-11-29T07:23:24.723Z,23.05
2022-11-29T07:25:41.077Z,20.92
2022-11-29T07:27:55.378Z,22.98
2022-11-29T07:30:15.453Z,21.90
2022-11-29T07:32:31.316Z,19.40
2022-11-29T07:34:47.350Z,21.42
2022-11-29T07:37:06.356Z,19.20
2022-11-29T07:39:25.280Z,20.85
2022-11-29T07:41:43.383Z,21.38
2022-11-29T07:43:59.250Z,19.73
2022-11-29T07:46:04.853Z,20.25
2022-11-29T07:48:09.880Z,18.65
2022-11-29T07:50:15.560Z,20.83
2022-11-29T07:52:23.381Z,19.98
2022-11-29T07:54:28.612Z,19.20
2022-11-29T07:56:33.672Z,17.98
2022-11-29T07:58:39.157Z,21.48
2022-11-29T08:00:45.215Z,19.98
2022-11-29T08:02:52.537Z,20.00
2022-11-29T08:04:58.148Z,19.08
2022-11-29T08:07:03.510Z,19.00
2022-11-29T08:09:11.511Z,19.25
2022-11-29T08:11:17.032Z,19.58
2022-11-29T08:13:22.866Z,17.65
2022-11-29T08:15:29.143Z,18.83
2022-11-29T08:17:34.192Z,18.85
2022-11-29T08:19:39.292Z,18.63
2022-11-29T08:21:48.279Z,17.98
2022-11-29T08:23:54.317Z,19.15
2022-11-29T08:26:06.204Z,19.77
2022-11-29T08:28:11.995Z,19.60
2022-11-29T08:30:19.108Z,17.67
2022-11-29T08:32:24.422Z,19.48
2022-11-29T08:34:30.357Z,17.20
2022-11-29T08:36:35.625Z,17.95
2022-11-29T08:38:40.729Z,18.92
2022-11-29T08:40:45.760Z,18.50
2022-11-29T08:42:53.832Z,18.67
2022-11-29T08:44:58.816Z,18.13
2022-11-29T08:47:16.701Z,16.85
2022-11-29T08:49:22.362Z,17.02
2022-11-29T08:51:27.382Z,18.25
2022-11-29T08:53:41.938Z,17.92
2022-11-29T08:55:47.402Z,18.00
2022-11-29T08:57:56.885Z,17.05
2022-11-29T09:00:01.950Z,17.98
2022-11-29T09:02:07.035Z,17.33
2022-11-29T09:04:14.309Z,16.45
2022-11-29T09:06:19.448Z,16.33
2022-11-29T09:08:24.691Z,16.08
2022-11-29T09:10:29.743Z,15.30
2022-11-29T09:12:35.261Z,15.07
2022-11-29T09:14:43.114Z,15.32
2022-11-29T09:16:48.369Z,15.95
2022-11-29T09:18:55.835Z,14.52
2022-11-29T09:21:01.287Z,16.02
2022-11-29T09:23:06.362Z,14.75
2022-11-29T09:25:11.914Z,15.15
2022-11-29T09:27:17.194Z,14.68
2022-11-29T09:29:22.482Z,15.57
2022-11-29T09:31:32.244Z,15.05
2022-11-29T09:33:37.590Z,16.48
2022-11-29T09:35:42.600Z,14.52
2022-11-29T09:37:47.697Z,15.50
2022-11-29T09:39:52.718Z,15.43
2022-11-29T09:42:30.633Z,15.50
2022-11-29T09:44:52.288Z,14.63
2022-11-29T09:47:17.798Z,15.50
2022-11-29T09:50:02.170Z,15.27
2022-11-29T09:52:17.228Z,15.32
2022-11-29T09:54:36.002Z,14.77
2022-11-29T09:56:46.756Z,15.15
2022-11-29T09:59:00.190Z,14.55
2022-11-29T10:01:12.048Z,15.65
2022-11-29T10:03:27.937Z,15.13
2022-11-29T10:05:40.763Z,14.60
2022-11-29T10:07:51.688Z,14.75
2022-11-29T10:10:03.771Z,15.65
2022-11-29T10:12:19.946Z,14.40
2022-11-29T10:14:31.619Z,16.38
2022-11-29T10:16:47.507Z,14.95
2022-11-29T10:19:01.512Z,15.18
2022-11-29T10:21:15.843Z,14.93
2022-11-29T10:23:31.210Z,16.00
2022-11-29T10:25:45.168Z,16.13
2022-11-29T10:27:51.042Z,15.70
2022-11-29T10:29:56.634Z,17.20
2022-11-29T10:32:10.078Z,17.52
2022-11-29T10:34:21.763Z,16.52
2022-11-29T10:36:35.657Z,18.17
2022-11-29T10:38:40.667Z,17.27
2022-11-29T10:40:50.278Z,17.30
2022-11-29T10:42:55.749Z,16.98
2022-11-29T10:45:02.644Z,18.45
2022-11-29T10:47:11.053Z,18.45
2022-11-29T10:49:23.688Z,17.80
2022-11-29T10:51:29.210Z,17.33
2022-11-29T10:53:39.795Z,18.08
2022-11-29T10:55:51.790Z,17.70
2022-11-29T10:58:15.266Z,17.58
2022-11-29T11:02:27.600Z,19.35
2022-11-29T11:04:39.856Z,19.70
2022-11-29T11:06:49.183Z,19.30
2022-11-29T11:08:57.168Z,20.52
2022-11-29T11:11:02.508Z,20.65
2022-11-29T11:13:22.926Z,19.27
2022-11-29T11:15:33.276Z,20.98
2022-11-29T11:17:40.093Z,20.05
2022-11-29T11:20:00.899Z,19.27
2022-11-29T11:22:07.380Z,19.02
2022-11-29T11:24:27.024Z,20.88
2022-11-29T11:26:46.390Z,18.85
2022-11-29T11:28:56.947Z,19.40
2022-11-29T11:31:05.698Z,20.10
2022-11-29T11:33:21.098Z,19.50
2022-11-29T11:35:29.248Z,20.02
2022-11-29T11:37:35.840Z,19.00
2022-11-29T11:39:41.700Z,21.23
2022-11-29T11:42:00.504Z,20.42
2022-11-29T11:44:14.966Z,21.90
2022-11-29T11:46:21.158Z,20.85
2022-11-29T11:48:27.360Z,19.63
2022-11-29T11:50:40.909Z,19.73
2022-11-29T11:52:50.697Z,19.65
2022-11-29T11:55:02.568Z,18.98
2022-11-29T11:57:07.628Z,19.17
2022-11-29T11:59:21.379Z,20.75
2022-11-29T12:01:31.768Z,19.63
2022-11-29T12:03:48.600Z,20.55
2022-11-29T12:06:01.073Z,20.15
2022-11-29T12:08:08.629Z,19.02
2022-11-29T12:10:22.523Z,19.50
2022-11-29T12:12:32.355Z,19.92
2022-11-29T12:14:48.734Z,20.67
2022-11-29T12:17:04.557Z,19.48
2022-11-29T12:19:20.429Z,19.00
2022-11-29T12:21:35.065Z,19.52
2022-11-29T12:23:47.025Z,19.40
2022-11-29T12:25:56.316Z,19.23
2022-11-29T12:28:01.398Z,20.08
2022-11-29T12:30:15.600Z,20.63
2022-11-29T12:32:50.951Z,21.02
2022-11-29T12:35:20.105Z,19.67
2022-11-29T12:37:37.446Z,19.42
2022-11-29T12:39:59.284Z,19.00
2022-11-29T12:42:13.094Z,19.10
2022-11-29T12:44:35.211Z,19.77
2022-11-29T12:46:40.921Z,19.10
2022-11-29T12:48:55.727Z,19.42
2022-11-29T12:51:10.684Z,19.13
2022-11-29T12:53:48.188Z,19.40
2022-11-29T12:56:05.024Z,20.75
2022-11-29T12:58:16.891Z,20.48
2022-11-29T13:00:23.748Z,20.67
2022-11-29T13:02:43.697Z,20.02
2022-11-29T13:05:00.726Z,20.95
2022-11-29T13:07:15.281Z,19.95
2022-11-29T13:09:50.485Z,20.55
2022-11-29T13:12:01.275Z,19.63
2022-11-29T13:14:41.580Z,18.23
2022-11-29T13:16:52.840Z,21.35
2022-11-29T13:19:07.845Z,19.30
2022-11-29T13:21:18.307Z,19.25
2022-11-29T13:23:46.166Z,20.58
2022-11-29T13:26:07.386Z,20.05
2022-11-29T13:30:25.086Z,20.08
2022-11-29T13:32:39.138Z,19.52
2022-11-29T13:34:48.196Z,20.55
2022-11-29T13:37:10.509Z,19.88
2022-11-29T13:39:33.339Z,19.30
2022-11-29T13:41:48.965Z,19.75
2022-11-29T13:44:05.760Z,17.83
2022-11-29T13:46:23.399Z,18.30
2022-11-29T13:48:39.571Z,20.48
2022-11-29T13:50:46.859Z,19.55
2022-11-29T13:52:53.159Z,21.50
2022-11-29T13:55:31.788Z,20.85
2022-11-29T14:00:37.175Z,21.77
2022-11-29T14:02:42.277Z,20.40
2022-11-29T14:04:49.487Z,21.13
2022-11-29T14:07:13.760Z,20.48
2022-11-29T14:09:29.889Z,21.25
2022-11-29T14:11:46.177Z,20.63
2022-11-29T14:13:57.744Z,20.35
2022-11-29T14:16:07.363Z,19.70
2022-11-29T14:19:06.393Z,21.02
2022-11-29T14:21:13.266Z,19.40
2022-11-29T14:23:33.979Z,21.15
2022-11-29T14:25:51.549Z,21.63
2022-11-29T14:28:07.636Z,22.00
2022-11-29T14:30:49.833Z,20.67
2022-11-29T14:33:01.465Z,21.42
2022-11-29T14:35:19.656Z,20.10
2022-11-29T14:37:47.194Z,21.50
2022-11-29T14:39:57.278Z,20.23
2022-11-29T14:42:17.084Z,19.42
2022-11-29T14:44:28.175Z,19.83
2022-11-29T14:46:35.620Z,18.77
2022-11-29T14:48:41.540Z,19.10
2022-11-29T14:50:49.357Z,19.23
2022-11-29T14:52:56.378Z,20.30
2022-11-29T14:55:11.018Z,21.23
2022-11-29T14:58:07.329Z,19.20
2022-11-29T15:00:14.702Z,19.83
2022-11-29T15:02:35.448Z,20.15
2022-11-29T15:04:42.157Z,17.77
2022-11-29T15:06:53.201Z,18.88
2022-11-29T15:09:06.603Z,19.20
2022-11-29T15:11:26.111Z,21.42
2022-11-29T15:13:37.129Z,20.25
2022-11-29T15:16:08.648Z,21.30
2022-11-29T15:18:36.164Z,18.70
2022-11-29T15:20:57.663Z,18.25
2022-11-29T15:23:09.066Z,19.08
2022-11-29T15:25:17.011Z,19.67
2022-11-29T15:27:22.763Z,17.58
2022-11-29T15:29:30.579Z,19.58
2022-11-29T15:31:36.114Z,18.27
2022-11-29T15:33:44.294Z,19.33
2022-11-29T15:35:53.689Z,18.02
2022-11-29T15:37:59.570Z,17.88
2022-11-29T15:40:13.712Z,18.58
2022-11-29T15:42:19.126Z,20.10
2022-11-29T15:44:26.130Z,22.27
2022-11-29T15:46:33.792Z,19.77
2022-11-29T15:48:39.485Z,20.88
2022-11-29T15:50:52.453Z,22.08
2022-11-29T15:55:15.895Z,22.05
2022-11-29T15:57:27.123Z,21.25
2022-11-29T15:59:39.065Z,21.42
2022-11-29T16:01:49.646Z,23.25
2022-11-29T16:03:58.416Z,21.40
2022-11-29T16:06:22.834Z,21.88
2022-11-29T16:08:31.786Z,27.42
2022-11-29T16:10:47.570Z,24.67
2022-11-29T16:12:58.499Z,23.42
2022-11-29T16:15:04.456Z,22.02
2022-11-29T16:17:11.281Z,26.75
2022-11-29T16:19:32.176Z,23.60
2022-11-29T16:21:37.191Z,21.98
2022-11-29T16:23:44.659Z,21.13
2022-11-29T16:26:05.290Z,19.50
2022-11-29T16:28:14.391Z,21.77
2022-11-29T16:30:25.608Z,20.30
2022-11-29T16:32:34.248Z,18.75
2022-11-29T16:34:44.276Z,18.13
2022-11-29T16:36:49.641Z,18.63
2022-11-29T16:38:57.547Z,21.13
2022-11-29T16:41:23.109Z,19.67
2022-11-29T16:43:53.952Z,20.40
2022-11-29T16:46:43.813Z,18.73
2022-11-29T16:48:49.543Z,18.70
2022-11-29T16:51:24.989Z,19.38
2022-11-29T16:53:38.986Z,26.20
2022-11-29T16:55:43.996Z,24.90
2022-11-29T16:57:52.334Z,26.33
2022-11-29T16:59:57.514Z,23.98
2022-11-29T17:02:02.736Z,21.70
2022-11-29T17:04:08.061Z,23.15
2022-11-29T17:06:15.227Z,21.98
2022-11-29T17:08:20.398Z,20.48
2022-11-29T17:10:28.890Z,19.52
2022-11-29T17:12:33.975Z,21.40
2022-11-29T17:14:42.630Z,19.35
2022-11-29T17:16:49.224Z,21.10
2022-11-29T17:18:55.441Z,20.02
2022-11-29T17:21:00.949Z,20.95
2022-11-29T17:23:06.017Z,20.95
2022-11-29T17:25:12.844Z,19.98
2022-11-29T17:27:17.963Z,19.83
2022-11-29T17:29:22.975Z,19.80
2022-11-29T17:31:31.416Z,19.52
2022-11-29T17:33:37.133Z,21.85
2022-11-29T17:35:42.156Z,21.15
2022-11-29T17:37:47.178Z,20.85
2022-11-29T17:39:52.228Z,21.05
2022-11-29T17:41:57.449Z,21.00
2022-11-29T17:44:03.681Z,21.67
2022-11-29T17:46:13.308Z,23.15
2022-11-29T17:48:21.427Z,20.23
2022-11-29T17:50:26.440Z,20.35
2022-11-29T17:52:31.441Z,21.90
2022-11-29T17:54:36.524Z,21.02
2022-11-29T17:56:41.606Z,19.25
2022-11-29T17:58:47.661Z,19.95
2022-11-29T18:00:52.664Z,21.20
2022-11-29T18:02:57.777Z,21.42
2022-11-29T18:05:05.649Z,20.70
2022-11-29T18:07:10.685Z,21.48
2022-11-29T18:09:15.711Z,23.75
2022-11-29T18:11:24.856Z,20.60
2022-11-29T18:13:30.825Z,22.52
2022-11-29T18:15:36.134Z,22.23
2022-11-29T18:17:41.125Z,22.45
2022-11-29T18:19:46.526Z,21.38
2022-11-29T18:21:54.525Z,20.63
2022-11-29T18:24:02.310Z,21.40
2022-11-29T18:26:10.216Z,20.27
2022-11-29T18:28:15.225Z,19.55
2022-11-29T18:30:20.616Z,22.27
2022-11-29T18:32:25.704Z,22.60
2022-11-29T18:34:30.674Z,21.20
2022-11-29T18:36:40.009Z,22.33
2022-11-29T18:38:49.179Z,23.58
2022-11-29T18:40:54.165Z,22.20
2022-11-29T18:42:59.208Z,22.77
2022-11-29T18:45:04.217Z,19.83
2022-11-29T18:47:09.263Z,20.67
2022-11-29T18:49:16.820Z,21.10
2022-11-29T18:51:23.211Z,20.08
2022-11-29T18:53:28.349Z,20.23
2022-11-29T18:55:36.081Z,19.02
2022-11-29T18:57:41.087Z,18.83
2022-11-29T18:59:46.068Z,18.85
2022-11-29T19:01:52.521Z,18.42
2022-11-29T19:04:01.478Z,20.35
2022-11-29T19:06:09.709Z,19.13
2022-11-29T19:08:14.721Z,17.48
2022-11-29T19:10:19.864Z,20.30
2022-11-29T19:12:27.461Z,20.90
2022-11-29T19:14:33.917Z,19.10
2022-11-29T19:16:38.948Z,18.90
2022-11-29T19:18:44.031Z,18.73
2022-11-29T19:20:49.049Z,20.83
2022-11-29T19:23:00.149Z,17.83
2022-11-29T19:25:05.585Z,20.90
2022-11-29T19:27:10.743Z,18.30
2022-11-29T19:29:19.069Z,18.38
2022-11-29T19:31:27.268Z,19.83
2022-11-29T19:33:32.495Z,17.88
2022-11-29T19:35:38.097Z,19.33
2022-11-29T19:37:43.126Z,20.48
2022-11-29T19:39:48.466Z,19.25
2022-11-29T19:41:53.584Z,18.75
2022-11-29T19:44:00.698Z,19.40
2022-11-29T19:46:13.956Z,18.23
2022-11-29T19:50:23.860Z,17.73
2022-11-29T19:52:29.107Z,17.80
2022-11-29T19:54:34.501Z,19.48
2022-11-29T19:56:40.169Z,21.30
2022-11-29T19:58:45.898Z,18.35
2022-11-29T20:00:50.971Z,19.38
2022-11-29T20:02:58.896Z,18.80
2022-11-29T20:05:03.965Z,17.52
2022-11-29T20:07:09.010Z,20.60
2022-11-29T20:09:16.207Z,22.02
2022-11-29T20:11:24.093Z,23.02
2022-11-29T20:13:29.173Z,21.50
2022-11-29T20:15:34.357Z,22.30
2022-11-29T20:17:39.681Z,20.90
2022-11-29T20:19:47.599Z,21.15
2022-11-29T20:21:52.848Z,20.90
2022-11-29T20:23:58.935Z,19.17
2022-11-29T20:26:05.756Z,20.92
2022-11-29T20:28:11.104Z,21.33
2022-11-29T20:30:18.796Z,25.15
2022-11-29T20:32:24.427Z,23.65
2022-11-29T20:34:29.873Z,22.38
2022-11-29T20:37:09.256Z,23.60
2022-11-29T20:39:29.365Z,19.98
2022-11-29T20:41:43.269Z,22.17
2022-11-29T20:43:56.903Z,23.75
2022-11-29T20:46:02.726Z,23.98
2022-11-29T20:48:17.657Z,22.75
2022-11-29T20:50:26.296Z,21.48
2022-11-29T20:52:46.718Z,22.48
2022-11-29T20:54:51.725Z,23.35
2022-11-29T20:56:56.774Z,22.13
2022-11-29T20:59:02.162Z,22.77
2022-11-29T21:01:08.294Z,22.42
2022-11-29T21:03:16.634Z,22.05
2022-11-29T21:05:21.800Z,20.52
2022-11-29T21:07:26.869Z,23.20
2022-11-29T21:09:34.521Z,20.83
2022-11-29T21:11:40.549Z,21.98
2022-11-29T21:13:47.658Z,21.15
2022-11-29T21:15:54.350Z,19.20
2022-11-29T21:18:01.056Z,19.55
2022-11-29T21:20:07.548Z,19.02
2022-11-29T21:22:21.109Z,18.60
2022-11-29T21:24:41.999Z,18.77
2022-11-29T21:26:53.025Z,17.60
2022-11-29T21:29:09.888Z,19.35
2022-11-29T21:31:19.320Z,18.63
2022-11-29T21:33:25.174Z,17.77
2022-11-29T21:35:30.251Z,20.25
2022-11-29T21:37:35.307Z,21.58
2022-11-29T21:39:42.960Z,17.92
2022-11-29T21:41:48.974Z,19.35
2022-11-29T21:44:09.231Z,18.60
2022-11-29T21:46:14.369Z,21.02
2022-11-29T21:48:31.888Z,18.73
2022-11-29T21:50:36.957Z,19.55
2022-11-29T21:52:43.662Z,19.50
2022-11-29T21:54:51.285Z,18.95
2022-11-29T21:56:56.439Z,21.52
2022-11-29T21:59:01.455Z,20.10
2022-11-29T22:01:12.312Z,20.70
2022-11-29T22:03:17.744Z,21.42
2022-11-29T22:05:23.144Z,19.15
2022-11-29T22:07:31.527Z,19.67
2022-11-29T22:09:36.617Z,18.25
2022-11-29T22:11:44.516Z,19.70
2022-11-29T22:14:01.826Z,18.02
2022-11-29T22:16:10.612Z,17.77
2022-11-29T22:18:16.096Z,16.88
2022-11-29T22:20:21.582Z,18.17
2022-11-29T22:22:28.194Z,17.92
2022-11-29T22:24:38.465Z,17.33
2022-11-29T22:26:47.026Z,19.92
2022-11-29T22:28:52.341Z,18.38
2022-11-29T22:31:08.621Z,18.73
2022-11-29T22:33:13.751Z,18.83
2022-11-29T22:35:19.212Z,16.40
2022-11-29T22:37:24.258Z,18.80
2022-11-29T22:39:29.772Z,16.50
2022-11-29T22:41:36.167Z,16.38
2022-11-29T22:43:45.022Z,18.75
2022-11-29T22:45:50.189Z,21.13
2022-11-29T22:47:55.214Z,21.13
2022-11-29T22:50:00.381Z,19.73
2022-11-29T22:52:07.778Z,21.63
2022-11-29T22:54:15.421Z,20.52
2022-11-29T22:56:21.277Z,18.02
2022-11-29T22:58:26.576Z,17.42
2022-11-29T23:00:42.545Z,17.20
2022-11-29T23:02:47.989Z,17.77
2022-11-29T23:04:52.976Z,15.70
2022-11-29T23:06:58.012Z,17.85
2022-11-29T23:09:10.744Z,18.20
2022-11-29T23:11:18.322Z,17.58
2022-11-29T23:13:23.329Z,18.13
2022-11-29T23:15:28.611Z,17.25
2022-11-29T23:17:36.257Z,17.20
2022-11-29T23:19:41.265Z,17.95
2022-11-29T23:21:47.301Z,17.02
2022-11-29T23:23:56.654Z,17.05
2022-11-29T23:26:02.903Z,17.42
2022-11-29T23:28:08.003Z,17.58
2022-11-29T23:30:15.633Z,18.17
2022-11-29T23:32:20.653Z,17.30
2022-11-29T23:34:29.562Z,17.05
2022-11-29T23:36:34.677Z,18.05
2022-11-29T23:38:42.571Z,16.67
2022-11-29T23:40:48.064Z,15.50
2022-11-29T23:42:54.291Z,20.23
2022-11-29T23:44:59.272Z,17.63
2022-11-29T23:47:04.310Z,19.08
2022-11-29T23:49:09.652Z,18.17
2022-11-29T23:51:18.169Z,22.77
2022-11-29T23:53:23.267Z,17.55
2022-11-29T23:55:29.181Z,15.50
2022-11-29T23:57:34.846Z,18.48
2022-11-29T23:59:39.980Z,21.42
